Time;durP1;ratioP1;P1;durP2;ratioP2;P2;SDS_P1;SDS_P2;PMS_P1;PMS_P2;Temp;Humidity;BMP_temperature;BMP_pressure;BME280_temperature;BME280_humidity;BME280_pressure;Samples;Min_cycle;Max_cycle;Signal;HPM_P1;HPM_P2
2022/04/12 00:00:19;;;;;;;16.47;8.90;;;;;;;-145.18;100.00;60484.78;5027505;28;20520;-70
2022/04/12 00:02:45;;;;;;;17.13;8.60;;;;;;;-145.18;100.00;60484.78;5029822;28;20358;-70
2022/04/12 00:05:13;;;;;;;15.50;9.30;;;;;;;-145.18;100.00;60484.78;5019901;28;20462;-70
2022/04/12 00:07:46;;;;;;;14.30;8.27;;;;;;;-145.18;100.00;60484.78;5022762;28;20388;-70
2022/04/12 00:10:13;;;;;;;14.77;8.50;;;;;;;-145.18;100.00;60484.78;5003090;28;20036;-70
2022/04/12 00:12:39;;;;;;;14.30;8.70;;;;;;;-145.18;100.00;60484.78;5025884;28;20485;-70
2022/04/12 00:15:06;;;;;;;14.70;8.20;;;;;;;-145.18;100.00;60484.78;5025103;28;20045;-70
2022/04/12 00:20:16;;;;;;;17.30;8.63;;;;;;;-145.18;100.00;60484.78;5026225;28;20160;-70
2022/04/12 00:22:42;;;;;;;16.23;8.93;;;;;;;-145.18;100.00;60484.78;5024436;28;20128;-70
2022/04/12 00:25:11;;;;;;;15.50;8.80;;;;;;;-145.18;100.00;60484.78;5023940;28;20072;-70
2022/04/12 00:27:38;;;;;;;12.90;8.47;;;;;;;-145.18;100.00;60484.78;5024857;28;20033;-70
2022/04/12 00:30:05;;;;;;;15.63;9.10;;;;;;;-145.18;100.00;60484.78;5025024;28;20477;-70
2022/04/12 00:32:31;;;;;;;13.77;9.07;;;;;;;-145.18;100.00;60484.78;5024059;28;20056;-70
2022/04/12 00:35:17;;;;;;;16.27;8.70;;;;;;;-145.18;100.00;60484.78;5020946;28;20065;-70
2022/04/12 00:37:43;;;;;;;17.33;9.23;;;;;;;-145.18;100.00;60484.78;5022377;28;20040;-70
2022/04/12 00:40:09;;;;;;;13.87;8.73;;;;;;;-145.18;100.00;60484.78;5026365;28;20021;-70
2022/04/12 00:42:35;;;;;;;15.30;8.87;;;;;;;-145.18;100.00;60484.78;5020055;28;20045;-70
2022/04/12 00:45:00;;;;;;;19.50;9.40;;;;;;;-145.18;100.00;60484.78;5023197;28;20030;-70
2022/04/12 00:47:26;;;;;;;15.77;9.70;;;;;;;-145.18;100.00;60484.78;5024944;28;20440;-70
2022/04/12 00:49:51;;;;;;;16.13;9.53;;;;;;;-145.18;100.00;60484.78;5029106;28;20112;-70
2022/04/12 00:52:17;;;;;;;15.33;9.07;;;;;;;-145.18;100.00;60484.78;5027800;28;20707;-70
2022/04/12 00:54:44;;;;;;;18.30;10.40;;;;;;;-145.18;100.00;60484.78;5025883;28;20523;-70
2022/04/12 00:57:12;;;;;;;17.47;9.73;;;;;;;-145.18;100.00;60484.78;5026297;28;20036;-70
2022/04/12 00:59:38;;;;;;;14.20;9.33;;;;;;;-145.18;100.00;60484.78;5023949;28;20030;-70
2022/04/12 01:02:05;;;;;;;14.27;8.37;;;;;;;-145.18;100.00;60484.78;5028258;28;20029;-70
2022/04/12 01:04:31;;;;;;;15.13;9.07;;;;;;;-145.18;100.00;60484.78;5026374;28;20037;-70
2022/04/12 01:06:57;;;;;;;13.63;8.87;;;;;;;-145.18;100.00;60484.78;5026032;28;20064;-70
2022/04/12 01:09:26;;;;;;;14.77;9.10;;;;;;;-145.18;100.00;60484.78;5021500;28;20194;-70
2022/04/12 01:11:57;;;;;;;15.77;8.83;;;;;;;-145.18;100.00;60484.78;5027401;28;20082;-70
2022/04/12 01:14:24;;;;;;;16.63;9.30;;;;;;;-145.18;100.00;60484.78;5021390;28;20029;-70
2022/04/12 01:16:50;;;;;;;15.53;8.97;;;;;;;-145.18;100.00;60484.78;5028804;28;20180;-70
2022/04/12 01:19:15;;;;;;;16.00;9.13;;;;;;;-145.18;100.00;60484.78;5025252;28;20113;-70
2022/04/12 01:22:00;;;;;;;16.43;8.87;;;;;;;-145.18;100.00;60484.78;5023600;28;20029;-70
2022/04/12 01:24:26;;;;;;;16.20;9.83;;;;;;;-145.18;100.00;60484.78;5026336;28;20389;-70
2022/04/12 01:26:51;;;;;;;16.33;9.70;;;;;;;-145.18;100.00;60484.78;5030841;28;20037;-70
2022/04/12 01:29:17;;;;;;;16.33;9.57;;;;;;;-145.18;100.00;60484.78;5028701;28;20468;-70
2022/04/12 01:31:42;;;;;;;16.93;9.93;;;;;;;-145.18;100.00;60484.78;5029229;28;20040;-70
2022/04/12 01:34:08;;;;;;;17.20;9.63;;;;;;;-145.18;100.00;60484.78;5022537;28;20033;-70
2022/04/12 01:36:33;;;;;;;18.90;9.90;;;;;;;-145.18;100.00;60484.78;5024730;28;20587;-70
2022/04/12 01:38:58;;;;;;;18.90;9.83;;;;;;;-145.18;100.00;60484.78;5025859;28;20039;-70
2022/04/12 01:41:24;;;;;;;16.17;9.93;;;;;;;-145.18;100.00;60484.78;5029141;28;20421;-70
2022/04/12 01:43:49;;;;;;;16.03;9.77;;;;;;;-145.18;100.00;60484.78;5028375;28;20094;-71
2022/04/12 01:46:14;;;;;;;17.23;10.43;;;;;;;-145.18;100.00;60484.78;5026757;28;20029;-71
2022/04/12 01:48:40;;;;;;;15.37;9.50;;;;;;;-145.18;100.00;60484.78;5018226;28;20064;-70
2022/04/12 01:51:05;;;;;;;16.67;9.60;;;;;;;-145.18;100.00;60484.78;5022636;28;20048;-70
2022/04/12 01:53:30;;;;;;;15.80;9.20;;;;;;;-145.18;100.00;60484.78;5028826;28;20036;-71
2022/04/12 01:55:56;;;;;;;17.43;10.33;;;;;;;-145.18;100.00;60484.78;5027822;28;20033;-71
2022/04/12 01:58:21;;;;;;;16.77;9.53;;;;;;;-145.18;100.00;60484.78;5028941;28;20029;-71
2022/04/12 02:00:47;;;;;;;15.30;9.53;;;;;;;-145.18;100.00;60484.78;5033073;28;20025;-71
2022/04/12 02:03:12;;;;;;;15.13;9.53;;;;;;;-145.18;100.00;60484.78;5030592;28;20421;-71
2022/04/12 02:05:39;;;;;;;16.53;9.00;;;;;;;-145.18;100.00;60484.78;5035074;28;20162;-70
2022/04/12 02:08:05;;;;;;;14.60;8.80;;;;;;;-145.18;100.00;60484.78;5032210;28;20051;-70
2022/04/12 02:10:31;;;;;;;18.33;9.43;;;;;;;-145.18;100.00;60484.78;5035798;28;20039;-71
2022/04/12 02:12:56;;;;;;;17.07;9.73;;;;;;;-145.18;100.00;60484.78;5026531;28;20042;-70
2022/04/12 02:15:22;;;;;;;16.13;9.73;;;;;;;-145.18;100.00;60484.78;5032237;28;20107;-70
2022/04/12 02:17:47;;;;;;;18.13;9.80;;;;;;;-145.18;100.00;60484.78;5029468;28;20115;-70
2022/04/12 02:20:13;;;;;;;18.53;9.73;;;;;;;6.09;100.00;-19326.00;5026386;28;20033;-71
2022/04/12 02:22:38;;;;;;;15.40;9.40;;;;;;;6.09;100.00;-19326.13;5026134;28;20068;-71
2022/04/12 02:25:04;;;;;;;17.03;9.10;;;;;;;6.14;100.00;-19327.31;5026668;28;20029;-70
2022/04/12 02:27:30;;;;;;;16.67;9.80;;;;;;;6.18;100.00;-19328.38;5010774;28;20210;-70
2022/04/12 02:29:55;;;;;;;16.20;9.67;;;;;;;6.11;100.00;-19326.66;5030021;28;20108;-71
2022/04/12 02:32:20;;;;;;;18.63;9.80;;;;;;;6.12;100.00;-19326.94;5021608;28;20040;-71
2022/04/12 02:34:46;;;;;;;17.13;10.03;;;;;;;6.13;100.00;-19327.06;5025759;28;20037;-71
2022/04/12 02:37:11;;;;;;;17.27;9.83;;;;;;;6.07;100.00;-19325.47;5020816;28;20512;-70
2022/04/12 02:39:37;;;;;;;17.57;10.50;;;;;;;6.02;100.00;-19324.28;5021052;28;20073;-71
2022/04/12 02:42:02;;;;;;;17.30;10.03;;;;;;;6.01;100.00;-19323.88;5020710;28;20026;-71
2022/04/12 02:44:28;;;;;;;17.77;10.30;;;;;;;6.00;100.00;-19323.63;5022805;28;20052;-70
2022/04/12 02:46:53;;;;;;;16.17;9.77;;;;;;;5.96;100.00;-19322.56;5020345;28;20037;-71
2022/04/12 02:49:19;;;;;;;18.97;10.23;;;;;;;5.98;100.00;-19323.22;5028883;28;20032;-71
2022/04/12 02:51:45;;;;;;;17.17;10.67;;;;;;;5.96;100.00;-19322.56;5028160;28;20030;-71
2022/04/12 02:54:11;;;;;;;16.43;9.90;;;;;;;5.99;100.00;-19323.34;5025583;28;20063;-70
2022/04/12 02:56:37;;;;;;;16.47;9.47;;;;;;;5.95;100.00;-19322.44;5019883;28;20051;-70
2022/04/12 02:59:03;;;;;;;15.97;10.23;;;;;;;5.93;100.00;-19321.78;5022995;28;20026;-70
2022/04/12 03:01:28;;;;;;;16.47;10.93;;;;;;;5.87;100.00;-19320.44;5019744;28;20169;-70
2022/04/12 03:03:54;;;;;;;18.53;10.57;;;;;;;5.79;100.00;-19318.31;5019452;28;20041;-70
2022/04/12 03:06:19;;;;;;;17.80;10.50;;;;;;;5.82;100.00;-19319.00;5027221;28;20032;-71
2022/04/12 03:08:44;;;;;;;19.03;10.13;;;;;;;5.79;100.00;-19318.31;5020010;28;20155;-71
2022/04/12 03:11:10;;;;;;;16.47;10.53;;;;;;;5.80;100.00;-19318.47;5007718;28;20022;-71
2022/04/12 03:13:35;;;;;;;18.60;10.73;;;;;;;5.72;100.00;-19316.34;5020137;28;20061;-71
2022/04/12 03:16:00;;;;;;;20.00;11.40;;;;;;;5.66;100.00;-19314.75;5026152;28;20051;-71
2022/04/12 03:18:26;;;;;;;17.40;10.67;;;;;;;5.64;100.00;-19314.34;5016213;28;20173;-70
2022/04/12 03:20:51;;;;;;;17.00;10.67;;;;;;;5.58;100.00;-19312.78;5022104;28;20112;-71
2022/04/12 03:23:17;;;;;;;15.90;10.80;;;;;;;5.48;100.00;-19310.25;5030030;28;20531;-71
2022/04/12 03:25:43;;;;;;;17.57;10.70;;;;;;;5.42;100.00;-19308.53;5014303;28;20393;-71
2022/04/12 03:28:09;;;;;;;15.53;10.40;;;;;;;5.40;100.00;-19308.00;5018047;28;20034;-71
2022/04/12 03:30:34;;;;;;;16.40;10.83;;;;;;;5.32;100.00;-19305.88;5026332;28;20036;-71
2022/04/12 03:33:00;;;;;;;20.60;12.47;;;;;;;5.19;100.00;-19302.72;5021470;28;20389;-71
2022/04/12 03:35:25;;;;;;;16.43;10.83;;;;;;;5.21;100.00;-19303.25;5022905;28;20038;-70
2022/04/12 03:37:50;;;;;;;20.30;11.67;;;;;;;5.26;100.00;-19304.56;5022473;28;20034;-71
2022/04/12 03:40:16;;;;;;;18.93;11.33;;;;;;;5.16;100.00;-19301.91;5027148;28;20034;-71
2022/04/12 03:42:42;;;;;;;21.83;12.07;;;;;;;5.17;100.00;-19302.19;5028983;28;20124;-71
2022/04/12 03:45:07;;;;;;;20.67;11.23;;;;;;;5.16;100.00;-19301.78;5030196;28;20456;-70
2022/04/12 03:47:33;;;;;;;20.83;11.50;;;;;;;5.20;100.00;-19302.97;5027998;28;20036;-70
2022/04/12 03:49:58;;;;;;;20.03;11.13;;;;;;;5.15;100.00;-19301.66;5033588;28;20116;-71
2022/04/12 03:52:23;;;;;;;21.53;12.43;;;;;;;5.12;100.00;-19300.72;5029140;28;20385;-71
2022/04/12 03:54:49;;;;;;;20.37;12.43;;;;;;;5.08;100.00;-19299.81;5023851;28;20036;-71
2022/04/12 03:57:15;;;;;;;24.70;12.70;;;;;;;5.10;100.00;-19300.19;5017207;28;20037;-70
2022/04/12 03:59:40;;;;;;;19.73;11.43;;;;;;;5.04;100.00;-19298.75;5032350;28;20552;-70
2022/04/12 04:02:06;;;;;;;17.83;11.43;;;;;;;5.08;100.00;-19299.81;5022564;28;20034;-70
2022/04/12 04:04:31;;;;;;;18.97;12.10;;;;;;;5.09;100.00;-19300.06;5025328;28;20041;-71
2022/04/12 04:06:57;;;;;;;16.63;10.47;;;;;;;5.05;100.00;-19299.00;5026778;28;20060;-71
2022/04/12 04:09:23;;;;;;;19.17;11.00;;;;;;;5.06;100.00;-19299.28;5022713;28;20036;-70
2022/04/12 04:11:48;;;;;;;18.20;10.93;;;;;;;5.06;100.00;-19299.28;5026531;28;20041;-70
2022/04/12 04:14:15;;;;;;;17.63;10.80;;;;;;;5.05;100.00;-19299.00;5023300;28;20478;-70
2022/04/12 04:16:41;;;;;;;18.77;11.17;;;;;;;4.99;100.00;-19297.56;5026161;28;20398;-70
2022/04/12 04:19:09;;;;;;;18.90;11.13;;;;;;;4.93;100.00;-19295.97;5031844;28;20037;-70
2022/04/12 04:21:37;;;;;;;19.40;10.80;;;;;;;4.90;100.00;-19295.03;5031438;28;20040;-69
2022/04/12 04:24:04;;;;;;;19.67;11.63;;;;;;;4.89;100.00;-19294.78;5025978;28;20405;-70
2022/04/12 04:26:29;;;;;;;20.87;11.47;;;;;;;4.80;100.00;-19292.38;5026839;28;20029;-70
2022/04/12 04:28:54;;;;;;;21.73;11.00;;;;;;;4.84;100.00;-19293.56;5024957;28;20018;-70
2022/04/12 04:31:20;;;;;;;16.87;10.27;;;;;;;4.98;100.00;-19297.28;5028780;28;20032;-70
2022/04/12 04:33:46;;;;;;;15.60;9.20;;;;;;;4.97;100.00;-19297.03;5026471;28;20034;-70
2022/04/12 04:36:11;;;;;;;19.77;12.03;;;;;;;4.91;100.00;-19295.44;5038327;28;20025;-70
2022/04/12 04:38:37;;;;;;;18.07;10.53;;;;;;;4.91;100.00;-19295.31;5026912;28;20044;-70
2022/04/12 04:41:02;;;;;;;17.20;10.47;;;;;;;4.95;100.00;-19296.34;5027769;28;20477;-70
2022/04/12 04:43:28;;;;;;;19.03;9.77;;;;;;;4.98;100.00;-19297.16;5025877;28;20029;-70
2022/04/12 04:45:53;;;;;;;20.53;11.03;;;;;;;4.94;100.00;-19296.22;5022423;28;20064;-70
2022/04/12 04:48:18;;;;;;;18.07;10.40;;;;;;;4.99;100.00;-19297.41;5016858;28;20036;-70
2022/04/12 04:50:44;;;;;;;18.77;10.43;;;;;;;5.07;100.00;-19299.53;5027043;28;20029;-70
2022/04/12 04:53:10;;;;;;;18.70;10.00;;;;;;;5.09;100.00;-19299.94;5028014;28;20129;-70
2022/04/12 04:55:42;;;;;;;14.43;9.10;;;;;;;5.19;100.00;-19302.59;5027395;28;20142;-70
2022/04/12 04:58:07;;;;;;;16.67;10.05;;;;;;;5.18;100.00;-19302.44;5033242;28;20056;-70
2022/04/12 05:00:34;;;;;;;15.80;8.97;;;;;;;5.27;100.00;-19304.84;5027590;28;20026;-70
2022/04/12 05:03:01;;;;;;;14.33;8.87;;;;;;;5.27;100.00;-19304.69;5029686;28;20036;-70
2022/04/12 05:05:27;;;;;;;18.47;10.73;;;;;;;5.35;100.00;-19306.69;5034108;28;20381;-70
2022/04/12 05:07:55;;;;;;;19.87;10.87;;;;;;;5.37;100.00;-19307.22;5024147;28;20026;-70
2022/04/12 05:10:34;;;;;;;15.97;10.60;;;;;;;5.42;100.00;-19308.53;5021549;28;20053;-70
2022/04/12 05:13:02;;;;;;;15.73;9.27;;;;;;;5.46;100.00;-19309.59;5023192;28;20032;-70
2022/04/12 05:15:28;;;;;;;17.53;8.80;;;;;;;5.50;100.00;-19310.66;5024655;28;20048;-70
2022/04/12 05:17:55;;;;;;;17.27;9.10;;;;;;;5.54;100.00;-19311.72;5020624;28;20033;-70
2022/04/12 05:20:24;;;;;;;15.43;9.40;;;;;;;5.63;100.00;-19313.97;5033303;28;20472;-70
2022/04/12 05:22:50;;;;;;;15.50;9.30;;;;;;;5.70;100.00;-19315.94;5024671;28;20079;-70
2022/04/12 05:25:16;;;;;;;17.13;9.10;;;;;;;5.72;100.00;-19316.47;5026521;28;20025;-70
2022/04/12 05:27:43;;;;;;;15.17;8.33;;;;;;;5.83;100.00;-19319.38;5024686;28;20029;-69
2022/04/12 05:30:10;;;;;;;14.80;8.40;;;;;;;5.81;100.00;-19318.84;5028693;28;20389;-70
2022/04/12 05:32:36;;;;;;;15.20;7.77;;;;;;;5.92;100.00;-19321.50;5019538;28;20079;-70
2022/04/12 05:35:03;;;;;;;15.70;8.83;;;;;;;5.97;100.00;-19322.84;5013813;28;20060;-70
2022/04/12 05:37:29;;;;;;;15.73;8.43;;;;;;;6.02;100.00;-19324.28;5017396;28;20029;-70
2022/04/12 05:39:56;;;;;;;14.13;7.87;;;;;;;6.14;100.00;-19327.31;5014303;28;20461;-70
2022/04/12 05:42:23;;;;;;;15.63;8.37;;;;;;;6.15;100.00;-19327.59;5028124;28;20030;-70
2022/04/12 05:44:48;;;;;;;16.30;8.30;;;;;;;6.25;100.00;-19330.22;5023771;28;20116;-70
2022/04/12 05:47:13;;;;;;;14.80;8.93;;;;;;;6.32;100.00;-19331.97;5014934;28;20482;-70
2022/04/12 05:49:39;;;;;;;16.23;9.10;;;;;;;6.39;100.00;-19333.94;5019774;28;20017;-70
2022/04/12 05:52:06;;;;;;;14.27;8.13;;;;;;;6.52;100.00;-19337.09;5025847;28;20055;-70
2022/04/12 05:54:31;;;;;;;15.57;8.80;;;;;;;6.63;100.00;-19340.00;5022954;28;20059;-70
2022/04/12 05:56:57;;;;;;;13.70;8.00;;;;;;;6.76;100.00;-19343.44;5015792;28;20494;-70
2022/04/12 05:59:22;;;;;;;17.03;9.73;;;;;;;6.77;100.00;-19343.72;5022642;28;20021;-70
2022/04/12 06:01:48;;;;;;;18.00;8.60;;;;;;;6.83;100.00;-19345.31;5015584;28;20420;-70
2022/04/12 06:04:14;;;;;;;16.80;8.90;;;;;;;6.90;100.00;-19347.16;5013085;28;20022;-70
2022/04/12 06:06:41;;;;;;;14.50;8.87;;;;;;;6.99;100.00;-19349.53;5019686;28;20164;-70
2022/04/12 06:09:07;;;;;;;14.73;8.87;;;;;;;7.03;100.00;-19350.59;5025805;28;20402;-70
2022/04/12 06:11:32;;;;;;;17.83;9.30;;;;;;;6.99;100.00;-19349.53;5024450;28;20029;-70
2022/04/12 06:13:58;;;;;;;17.50;9.50;;;;;;;6.95;100.00;-19348.47;5019217;28;20151;-70
2022/04/12 06:16:24;;;;;;;15.40;8.90;;;;;;;7.00;100.00;-19349.66;5022114;28;20018;-70
2022/04/12 06:18:49;;;;;;;15.90;8.37;;;;;;;6.99;100.00;-19349.41;5020099;28;20132;-70
2022/04/12 06:21:15;;;;;;;19.17;9.40;;;;;;;6.84;100.00;-19345.56;5029744;28;20021;-70
2022/04/12 06:23:41;;;;;;;16.50;9.47;;;;;;;6.76;100.00;-19343.59;5018663;28;20029;-70
2022/04/12 06:26:06;;;;;;;15.67;9.43;;;;;;;6.80;100.00;-19344.38;5022023;28;20043;-70
2022/04/12 06:28:32;;;;;;;15.83;8.27;;;;;;;6.82;100.00;-19344.91;5016749;28;20022;-70
2022/04/12 06:31:00;;;;;;;17.67;9.33;;;;;;;6.89;100.00;-19346.88;5022820;28;20489;-70
2022/04/12 06:33:26;;;;;;;16.37;9.33;;;;;;;7.12;100.00;-19352.69;5022243;28;20052;-70
2022/04/12 06:35:51;;;;;;;16.83;10.17;;;;;;;7.56;100.00;-19364.31;5030282;28;20033;-70
2022/04/12 06:38:18;;;;;;;17.90;10.10;;;;;;;8.41;100.00;-19386.38;5005764;28;20029;-69
2022/04/12 06:40:44;;;;;;;18.87;9.80;;;;;;;9.37;100.00;-19411.28;5020842;28;20041;-70
2022/04/12 06:43:11;;;;;;;16.93;8.87;;;;;;;10.01;100.00;-19427.63;5016692;28;20409;-70
2022/04/12 06:45:37;;;;;;;14.40;8.60;;;;;;;10.34;100.00;-19436.19;5016309;28;20076;-70
2022/04/12 06:48:03;;;;;;;14.53;7.47;;;;;;;10.92;100.00;-19451.31;5012251;28;20034;-70
2022/04/12 06:50:28;;;;;;;13.13;7.90;;;;;;;11.32;100.00;-19461.56;5018795;28;20074;-70
2022/04/12 06:52:56;;;;;;;15.17;7.77;;;;;;;11.64;100.00;-19469.84;5022808;28;20068;-70
2022/04/12 06:55:21;;;;;;;12.33;7.37;;;;;;;11.45;100.00;-19465.13;5019328;28;20083;-70
2022/04/12 06:57:47;;;;;;;11.93;6.77;;;;;;;11.68;100.00;-19471.03;5029703;28;20128;-70
2022/04/12 07:00:13;;;;;;;12.37;6.33;;;;;;;11.85;100.00;-19475.25;5021271;28;20033;-70
2022/04/12 07:02:38;;;;;;;11.63;6.17;;;;;;;11.65;100.00;-19470.25;5031495;28;20504;-70
2022/04/12 07:05:06;;;;;;;12.17;7.10;;;;;;;11.79;100.00;-19473.66;5023748;28;20017;-70
2022/04/12 07:07:32;;;;;;;12.13;6.80;;;;;;;12.06;100.00;-19480.75;5020438;28;20053;-70
2022/04/12 07:09:58;;;;;;;12.90;6.30;;;;;;;12.09;100.00;-19481.53;5022929;28;20026;-70
2022/04/12 07:12:24;;;;;;;11.63;5.97;;;;;;;11.95;100.00;-19477.88;5016715;28;20026;-70
2022/04/12 07:14:50;;;;;;;12.83;7.37;;;;;;;12.05;100.00;-19480.50;5030306;28;20052;-70
2022/04/12 07:17:15;;;;;;;10.33;6.03;;;;;;;12.06;100.00;-19480.75;5018565;28;20033;-70
2022/04/12 07:19:41;;;;;;;11.27;6.53;;;;;;;11.91;100.00;-19476.81;5027281;28;20038;-70
2022/04/12 07:22:09;;;;;;;12.30;6.07;;;;;;;12.38;100.00;-19488.91;5025126;28;20429;-71
2022/04/12 07:24:34;;;;;;;10.13;5.57;;;;;;;12.28;100.00;-19486.53;5029005;28;20071;-70
2022/04/12 07:27:00;;;;;;;15.10;7.63;;;;;;;12.54;100.00;-19493.22;5028670;28;20021;-70
2022/04/12 07:29:25;;;;;;;12.90;6.90;;;;;;;13.13;97.59;-19508.31;5025230;28;20401;-70
2022/04/12 07:31:51;;;;;;;10.53;6.70;;;;;;;13.13;97.79;-19508.47;5024801;28;20036;-71
2022/04/12 07:34:16;;;;;;;11.50;6.70;;;;;;;13.18;100.00;-19509.63;5016041;28;20482;-70
2022/04/12 07:36:47;;;;;;;10.77;6.33;;;;;;;13.11;98.42;-19507.81;5022738;28;20393;-70
2022/04/12 07:39:13;;;;;;;11.47;6.70;;;;;;;13.12;100.00;-19508.06;5019623;28;20163;-71
2022/04/12 07:41:39;;;;;;;11.83;6.40;;;;;;;13.27;100.00;-19511.88;5024837;28;20108;-71
2022/04/12 07:44:05;;;;;;;8.97;4.67;;;;;;;13.17;94.61;-19509.50;5024108;28;20112;-71
2022/04/12 07:46:30;;;;;;;10.40;6.20;;;;;;;13.10;97.72;-19507.53;5028667;28;20032;-70
2022/04/12 07:48:56;;;;;;;13.83;6.83;;;;;;;12.25;100.00;-19485.75;5024980;28;20057;-70
2022/04/12 07:51:21;;;;;;;9.80;5.30;;;;;;;12.40;100.00;-19489.44;5031283;28;20039;-70
2022/04/12 07:53:46;;;;;;;13.13;5.80;;;;;;;12.12;100.00;-19482.34;5034049;28;20026;-70
2022/04/12 07:56:12;;;;;;;9.70;6.07;;;;;;;11.84;100.00;-19474.97;5024927;28;20489;-70
2022/04/12 07:58:37;;;;;;;11.27;6.20;;;;;;;11.60;100.00;-19468.94;5030638;28;20041;-70
2022/04/12 08:01:03;;;;;;;11.30;6.80;;;;;;;11.78;100.00;-19473.41;5026861;28;20421;-70
2022/04/12 08:03:28;;;;;;;10.67;6.77;;;;;;;11.96;100.00;-19478.13;5011327;28;20037;-70
2022/04/12 08:05:54;;;;;;;10.87;6.20;;;;;;;12.49;100.00;-19491.91;5027053;28;20071;-70
2022/04/12 08:08:20;;;;;;;9.13;4.80;;;;;;;13.19;100.00;-19509.91;5031229;28;20060;-70
2022/04/12 08:10:45;;;;;;;10.83;6.03;;;;;;;13.61;96.53;-19520.66;5026336;28;20072;-70
2022/04/12 08:13:11;;;;;;;11.77;6.30;;;;;;;14.04;100.00;-19531.94;5016795;28;20024;-70
2022/04/12 08:15:37;;;;;;;10.50;6.53;;;;;;;14.51;93.59;-19543.84;5023519;28;20033;-70
2022/04/12 08:18:03;;;;;;;10.10;5.22;;;;;;;14.60;88.55;-19546.34;5023761;28;20501;-71
2022/04/12 08:20:29;;;;;;;10.43;5.50;;;;;;;14.24;88.25;-19536.91;5024309;28;20036;-70
2022/04/12 08:22:56;;;;;;;10.55;5.50;;;;;;;13.59;93.04;-19520.13;5004528;28;20565;-70
2022/04/12 08:25:21;;;;;;;11.80;5.70;;;;;;;12.73;99.15;-19498.09;5028791;28;20489;-70
2022/04/12 08:27:47;;;;;;;11.67;6.13;;;;;;;12.66;100.00;-19496.13;5029550;28;20061;-70
2022/04/12 08:30:13;;;;;;;10.53;6.90;;;;;;;12.88;100.00;-19502.03;5031785;28;20083;-70
2022/04/12 08:32:38;;;;;;;11.77;6.47;;;;;;;14.06;100.00;-19532.47;5030566;28;20022;-70
2022/04/12 08:35:05;;;;;;;29.77;15.40;;;;;;;15.07;95.14;-19558.25;5029310;28;20156;-71
2022/04/12 08:37:31;;;;;;;176.27;100.70;;;;;;;15.28;81.75;-19563.63;5026789;28;20083;-70
2022/04/12 08:39:56;;;;;;;79.47;60.90;;;;;;;15.11;90.74;-19559.44;5022244;28;20105;-71
2022/04/12 08:42:22;;;;;;;25.80;19.40;;;;;;;14.79;85.80;-19551.19;5011548;28;20079;-70
2022/04/12 08:44:49;;;;;;;16.40;11.50;;;;;;;14.98;88.84;-19556.03;5019918;28;20033;-70
2022/04/12 08:47:18;;;;;;;43.50;30.08;;;;;;;15.42;89.80;-19567.28;5012689;28;20053;-71
2022/04/12 08:49:43;;;;;;;28.10;18.92;;;;;;;15.65;77.99;-19573.19;5021334;28;20033;-71
2022/04/12 08:52:11;;;;;;;8.68;5.22;;;;;;;16.50;79.58;-19595.00;5023614;28;20468;-71
2022/04/12 08:54:38;;;;;;;13.20;6.82;;;;;;;17.17;78.84;-19612.25;5020386;28;20026;-71
2022/04/12 08:57:03;;;;;;;13.18;6.90;;;;;;;17.61;74.54;-19623.59;5024277;28;20156;-70
2022/04/12 08:59:29;;;;;;;12.45;6.20;;;;;;;18.30;65.50;-19641.22;5024359;28;20124;-71
2022/04/12 09:01:54;;;;;;;10.90;6.20;;;;;;;17.83;72.26;-19629.22;5025360;28;20087;-71
2022/04/12 09:04:20;;;;;;;11.95;6.78;;;;;;;16.98;66.63;-19607.56;5021781;28;20512;-70
2022/04/12 09:06:55;;;;;;;9.00;5.57;;;;;;;17.61;66.65;-19623.59;5027172;28;20061;-71
2022/04/12 09:09:22;;;;;;;11.23;6.03;;;;;;;17.34;63.26;-19616.69;5020939;28;20056;-70
2022/04/12 09:12:12;;;;;;;11.13;6.53;;;;;;;16.77;70.36;-19602.06;5027356;28;20493;-71
2022/04/12 09:14:39;;;;;;;11.45;6.30;;;;;;;17.20;66.96;-19613.16;5008589;28;20461;-70
2022/04/12 09:17:05;;;;;;;14.32;4.68;;;;;;;17.39;67.80;-19618.00;5025064;28;20083;-71
2022/04/12 09:19:42;;;;;;;11.02;6.05;;;;;;;17.86;72.00;-19630.00;5026855;28;20037;-71
2022/04/12 09:22:11;;;;;;;9.75;6.30;;;;;;;18.20;69.79;-19638.59;5025826;28;20080;-70
2022/04/12 09:25:06;;;;;;;9.00;5.13;;;;;;;18.03;62.26;-19634.44;5029103;28;20029;-70
2022/04/12 09:27:33;;;;;;;9.95;4.80;;;;;;;17.90;68.71;-19631.03;5012925;28;20045;-71
2022/04/12 09:30:10;;;;;;;11.20;6.80;;;;;;;18.27;70.78;-19640.44;5020784;28;20029;-71
2022/04/12 09:32:40;;;;;;;10.32;5.60;;;;;;;18.57;66.70;-19648.25;5022655;28;20083;-71
2022/04/12 09:35:07;;;;;;;10.95;6.88;;;;;;;17.92;69.40;-19631.44;5020934;28;20489;-71
2022/04/12 09:37:38;;;;;;;9.95;6.10;;;;;;;18.08;67.91;-19635.72;5024532;28;20033;-70
2022/04/12 09:40:04;;;;;;;;;;;;;;;17.92;63.72;-19631.56;5015996;28;20059;-70
2022/04/12 09:42:40;;;;;;;9.85;5.35;;;;;;;17.88;68.90;-19630.53;5025236;28;19922;-71
2022/04/12 09:45:08;;;;;;;8.30;5.50;;;;;;;17.75;76.50;-19627.13;5025705;28;20129;-71
2022/04/12 09:47:34;;;;;;;10.55;6.40;;;;;;;17.12;69.74;-19610.94;5020907;28;20124;-70
2022/04/12 09:50:00;;;;;;;9.50;5.22;;;;;;;16.83;71.06;-19603.63;5025507;28;20707;-70
2022/04/12 09:52:27;;;;;;;11.30;5.78;;;;;;;16.89;72.95;-19605.19;5029367;28;20033;-70
2022/04/12 09:54:54;;;;;;;12.55;5.80;;;;;;;16.66;71.28;-19599.19;5027659;28;20029;-70
2022/04/12 09:57:19;;;;;;;12.57;6.63;;;;;;;17.04;82.45;-19608.84;5021299;28;20556;-71
2022/04/12 09:59:45;;;;;;;12.70;6.38;;;;;;;16.97;78.83;-19607.16;5027164;28;20067;-70
2022/04/12 10:02:11;;;;;;;12.70;6.50;;;;;;;17.53;73.92;-19621.66;5021101;28;20041;-71
2022/04/12 10:04:38;;;;;;;11.57;6.65;;;;;;;17.48;72.51;-19620.22;5021754;28;20039;-71
2022/04/12 10:07:05;;;;;;;10.65;5.95;;;;;;;17.40;67.80;-19618.25;5026533;28;20068;-71
2022/04/12 10:09:33;;;;;;;13.50;6.63;;;;;;;17.68;72.67;-19625.28;5031822;28;20115;-70
2022/04/12 10:11:59;;;;;;;10.05;5.15;;;;;;;17.57;70.30;-19622.56;5030842;28;20373;-70
2022/04/12 10:14:24;;;;;;;13.13;6.75;;;;;;;17.41;71.29;-19618.50;5030804;28;20044;-71
2022/04/12 10:16:50;;;;;;;9.48;5.78;;;;;;;17.81;75.42;-19628.69;5025265;28;20055;-71
2022/04/12 10:19:16;;;;;;;9.43;4.93;;;;;;;17.77;69.31;-19627.66;5031063;28;20456;-71
2022/04/12 10:21:42;;;;;;;12.35;6.72;;;;;;;17.74;70.68;-19626.88;5027568;28;20108;-70
2022/04/12 10:24:10;;;;;;;12.50;6.50;;;;;;;18.36;80.29;-19642.78;5025526;28;20488;-71
2022/04/12 10:26:36;;;;;;;10.57;6.07;;;;;;;18.22;72.66;-19639.13;5023591;28;20362;-71
2022/04/12 10:29:06;;;;;;;10.63;6.20;;;;;;;17.95;76.94;-19632.22;5022067;28;20136;-71
2022/04/12 10:31:32;;;;;;;11.30;6.32;;;;;;;17.51;74.60;-19621.00;5025651;28;20057;-71
2022/04/12 10:34:09;;;;;;;12.65;7.20;;;;;;;17.59;83.07;-19623.09;5026891;28;20080;-70
2022/04/12 10:37:08;;;;;;;11.10;6.22;;;;;;;17.71;77.75;-19626.09;5021877;28;20087;-71
2022/04/12 10:39:47;;;;;;;11.95;6.90;;;;;;;18.18;81.68;-19638.09;5017785;28;20069;-71
2022/04/12 10:42:18;;;;;;;13.48;7.85;;;;;;;18.19;77.87;-19638.47;5017581;28;20087;-70
2022/04/12 10:44:46;;;;;;;11.55;6.80;;;;;;;18.56;83.37;-19648.00;5016636;28;20029;-70
2022/04/12 10:47:30;;;;;;;10.27;5.65;;;;;;;17.90;72.12;-19630.91;5018293;28;20533;-71
2022/04/12 10:49:58;;;;;;;13.55;6.65;;;;;;;17.79;74.64;-19628.16;5017329;28;20070;-70
2022/04/12 10:52:35;;;;;;;12.60;6.80;;;;;;;17.82;78.96;-19628.97;5018029;28;21001;-70
2022/04/12 10:55:07;;;;;;;10.65;6.43;;;;;;;17.83;75.96;-19629.22;5018763;28;20057;-70
2022/04/12 10:57:33;;;;;;;10.48;6.28;;;;;;;18.06;69.10;-19635.22;5019719;28;20155;-70
2022/04/12 11:00:05;;;;;;;12.45;7.10;;;;;;;18.00;79.40;-19633.66;5018914;28;20140;-70
2022/04/12 11:02:38;;;;;;;9.48;5.03;;;;;;;17.91;68.65;-19631.31;5017924;28;20389;-70
2022/04/12 11:05:05;;;;;;;11.93;6.35;;;;;;;17.32;74.53;-19616.16;5017370;28;20025;-70
2022/04/12 11:07:36;;;;;;;12.18;7.22;;;;;;;16.85;77.13;-19604.16;5018358;28;20445;-70
2022/04/12 11:10:14;;;;;;;12.30;6.72;;;;;;;17.13;93.86;-19611.34;5016406;28;20049;-70
2022/04/12 11:12:44;;;;;;;11.18;5.68;;;;;;;17.16;91.16;-19612.00;5016080;28;20719;-70